Time;durP1;ratioP1;P1;durP2;ratioP2;P2;SDS_P1;SDS_P2;PMS_P1;PMS_P2;Temp;Humidity;BMP_temperature;BMP_pressure;BME280_temperature;BME280_humidity;BME280_pressure;Samples;Min_cycle;Max_cycle;Signal;HPM_P1;HPM_P2
2023/09/20 00:02:20;;;;;;;1.67;1.45;;;;;;;18.47;73.40;99806.72;6231717;23;20096;-88
2023/09/20 00:04:47;;;;;;;3.65;1.45;;;;;;;18.48;73.21;99803.03;6206280;23;20032;-88
2023/09/20 00:07:16;;;;;;;1.70;1.60;;;;;;;18.44;72.94;99808.78;6205550;23;20079;-88
2023/09/20 00:09:43;;;;;;;4.18;1.52;;;;;;;18.44;73.08;99808.78;6157715;23;20021;-88
2023/09/20 00:12:10;;;;;;;3.95;1.45;;;;;;;18.41;72.95;99806.44;6156288;23;20024;-89
2023/09/20 00:14:37;;;;;;;2.38;1.60;;;;;;;18.43;72.88;99815.16;6180869;23;20083;-88
2023/09/20 00:17:04;;;;;;;2.85;1.70;;;;;;;18.42;72.70;99804.63;6180491;23;20020;-87
2023/09/20 00:19:31;;;;;;;2.60;1.58;;;;;;;18.39;72.36;99805.81;6205567;23;20348;-88
2023/09/20 00:21:58;;;;;;;4.70;1.33;;;;;;;18.36;72.35;99806.19;6179919;23;20024;-88
2023/09/20 00:24:25;;;;;;;3.03;1.60;;;;;;;18.34;72.45;99800.19;6181153;23;20112;-89
2023/09/20 00:26:52;;;;;;;2.65;1.77;;;;;;;18.32;72.22;99802.22;6180605;23;20499;-88
2023/09/20 00:29:19;;;;;;;4.07;1.70;;;;;;;18.30;72.33;99793.50;6180742;23;20044;-88
2023/09/20 00:31:46;;;;;;;1.70;1.42;;;;;;;18.31;71.75;99786.25;6206204;23;20016;-88
2023/09/20 00:34:13;;;;;;;3.53;1.52;;;;;;;18.32;72.07;99787.91;6179594;23;20095;-88
2023/09/20 00:36:40;;;;;;;1.77;1.58;;;;;;;18.28;72.20;99781.25;6180935;23;20024;-88
2023/09/20 00:39:09;;;;;;;3.72;1.70;;;;;;;18.31;72.04;99781.72;6206174;23;20091;-88
2023/09/20 00:41:36;;;;;;;3.75;1.40;;;;;;;18.30;72.14;99785.44;6181464;23;20353;-89
2023/09/20 00:44:04;;;;;;;2.50;1.33;;;;;;;18.30;72.24;99782.75;6181602;23;20088;-88
2023/09/20 00:46:31;;;;;;;2.10;1.40;;;;;;;18.28;72.17;99786.63;6157690;23;20103;-88
2023/09/20 00:48:59;;;;;;;3.03;1.40;;;;;;;18.28;72.20;99783.94;6181091;23;20098;-89
2023/09/20 00:51:27;;;;;;;4.88;1.63;;;;;;;18.25;72.28;99782.47;6181635;23;20020;-89
2023/09/20 00:53:57;;;;;;;4.97;1.65;;;;;;;18.25;72.18;99787.03;6156099;23;20071;-89
2023/09/20 00:56:24;;;;;;;3.33;1.70;;;;;;;18.18;72.23;99779.69;6157058;23;20020;-89
2023/09/20 00:58:52;;;;;;;3.38;1.80;;;;;;;18.18;72.36;99776.16;6155831;23;20021;-88
2023/09/20 01:01:20;;;;;;;3.92;1.67;;;;;;;18.20;72.22;99787.56;6181113;23;20349;-88
2023/09/20 01:03:51;;;;;;;4.03;1.92;;;;;;;18.17;72.17;99772.66;6155874;23;20386;-88
2023/09/20 01:06:20;;;;;;;1.70;1.58;;;;;;;18.20;72.40;99777.66;6157631;23;20083;-89
2023/09/20 01:08:46;;;;;;;2.80;1.40;;;;;;;18.18;72.28;99777.00;6180733;23;20409;-87
2023/09/20 01:11:15;;;;;;;4.90;2.13;;;;;;;18.17;71.83;99772.66;6181332;23;20024;-87
2023/09/20 01:13:43;;;;;;;3.20;1.55;;;;;;;18.15;72.13;99780.06;6156854;23;20066;-88
2023/09/20 01:16:11;;;;;;;6.45;1.80;;;;;;;18.14;72.06;99770.34;6205471;23;20035;-88
2023/09/20 01:18:39;;;;;;;2.40;1.48;;;;;;;18.13;72.34;99765.97;6180859;23;20075;-88
2023/09/20 01:21:06;;;;;;;4.53;1.92;;;;;;;18.11;72.30;99777.94;6156093;23;20016;-89
2023/09/20 01:23:35;;;;;;;2.50;1.60;;;;;;;18.11;72.32;99776.06;6205666;23;20044;-89
2023/09/20 01:26:03;;;;;;;1.48;1.38;;;;;;;18.10;72.33;99773.59;6180486;23;20020;-89
2023/09/20 01:28:30;;;;;;;6.55;1.85;;;;;;;18.06;72.51;99774.97;6156486;23;20020;-88
2023/09/20 01:31:00;;;;;;;2.35;1.55;;;;;;;18.05;72.90;99771.44;6155909;23;20027;-89
2023/09/20 01:33:27;;;;;;;3.33;1.80;;;;;;;18.05;72.92;99776.00;6181982;23;20099;-88
2023/09/20 01:35:54;;;;;;;2.58;1.60;;;;;;;18.04;72.79;99775.16;6156019;23;20020;-88
2023/09/20 01:38:21;;;;;;;1.73;1.52;;;;;;;18.05;72.75;99773.31;6180155;23;20051;-89
2023/09/20 01:40:48;;;;;;;3.55;1.35;;;;;;;18.04;72.92;99768.94;6181045;23;20020;-89
2023/09/20 01:43:15;;;;;;;2.75;1.63;;;;;;;18.05;72.60;99771.44;6155682;23;20461;-90
2023/09/20 01:45:43;;;;;;;2.72;1.60;;;;;;;18.06;72.51;99764.22;6204855;23;20036;-89
2023/09/20 01:48:11;;;;;;;4.53;1.50;;;;;;;18.05;72.91;99760.69;6156070;23;20031;-88
2023/09/20 01:50:41;;;;;;;2.70;1.75;;;;;;;18.04;72.79;99768.94;6155608;23;20028;-89
2023/09/20 01:53:10;;;;;;;2.72;1.50;;;;;;;18.00;72.94;99763.13;6155301;23;20016;-88
2023/09/20 01:55:42;;;;;;;2.78;1.70;;;;;;;18.00;73.03;99760.44;6155880;23;20020;-88
2023/09/20 01:58:12;;;;;;;3.72;1.90;;;;;;;17.98;72.99;99757.91;6180574;23;20021;-88
2023/09/20 02:00:41;;;;;;;1.63;1.52;;;;;;;17.97;72.86;99756.25;6156731;23;20096;-87
2023/09/20 02:03:18;;;;;;;2.90;1.80;;;;;;;17.96;73.08;99759.97;6179121;23;20777;-88
2023/09/20 02:05:47;;;;;;;3.47;1.60;;;;;;;17.93;72.99;99756.81;6181567;23;20052;-87
2023/09/20 02:08:16;;;;;;;2.15;1.23;;;;;;;17.94;72.89;99750.44;6179578;23;20400;-87
2023/09/20 02:10:44;;;;;;;2.80;1.73;;;;;;;17.92;73.35;99749.78;6179107;23;20035;-88
2023/09/20 02:13:13;;;;;;;4.35;1.42;;;;;;;17.93;72.89;99763.00;6154881;23;20428;-87
2023/09/20 02:15:41;;;;;;;3.50;1.45;;;;;;;17.90;73.23;99758.00;6155482;23;20026;-88
2023/09/20 02:18:09;;;;;;;3.33;1.38;;;;;;;17.86;73.13;99755.88;6179527;23;20017;-88
2023/09/20 02:20:37;;;;;;;1.98;1.63;;;;;;;17.87;72.99;99771.81;6154674;23;20020;-87
2023/09/20 02:23:08;;;;;;;2.38;1.52;;;;;;;17.85;72.83;99771.16;6130437;23;20044;-87
2023/09/20 02:25:35;;;;;;;2.60;1.30;;;;;;;17.79;72.92;99764.69;6179260;23;20518;-87
2023/09/20 02:28:02;;;;;;;2.88;1.40;;;;;;;17.75;73.06;99757.97;6178724;23;20031;-89
2023/09/20 02:30:32;;;;;;;2.05;1.40;;;;;;;17.77;72.93;99755.94;6179894;23;20035;-89
2023/09/20 02:32:59;;;;;;;4.25;1.27;;;;;;;17.77;72.81;99757.81;6156076;23;20088;-89
2023/09/20 02:35:28;;;;;;;6.78;1.67;;;;;;;17.75;72.77;99755.28;6155460;23;20044;-89
2023/09/20 02:37:59;;;;;;;2.08;1.40;;;;;;;17.74;72.83;99748.25;6130805;23;20119;-88
2023/09/20 02:40:27;;;;;;;2.88;1.70;;;;;;;17.71;72.40;99758.53;6179570;23;20023;-88
2023/09/20 02:42:58;;;;;;;3.30;1.60;;;;;;;17.73;72.50;99751.13;6179621;23;20419;-88
2023/09/20 02:45:30;;;;;;;2.55;1.60;;;;;;;17.72;72.67;99752.16;6156417;23;20028;-88
2023/09/20 02:48:06;;;;;;;5.30;1.85;;;;;;;17.72;72.32;99758.34;6155468;23;20025;-88
2023/09/20 02:50:34;;;;;;;8.07;1.55;;;;;;;17.67;72.41;99752.69;6156879;23;20071;-88
2023/09/20 02:53:01;;;;;;;2.28;1.40;;;;;;;17.68;72.43;99759.75;6178542;23;20036;-88
2023/09/20 02:55:31;;;;;;;3.75;1.60;;;;;;;17.64;72.74;99753.06;6180086;23;20493;-88
2023/09/20 02:57:59;;;;;;;4.65;1.50;;;;;;;17.64;72.55;99750.38;6155588;23;20024;-88
2023/09/20 03:00:31;;;;;;;1.63;1.20;;;;;;;17.64;72.41;99754.91;6131240;23;20079;-89
2023/09/20 03:03:08;;;;;;;2.30;1.45;;;;;;;17.59;72.53;99752.78;6131108;23;20500;-88
2023/09/20 03:05:36;;;;;;;1.88;1.30;;;;;;;17.58;72.48;99745.75;6157465;23;20017;-87
2023/09/20 03:08:11;;;;;;;4.78;2.25;;;;;;;17.59;72.75;99758.16;6180132;23;20024;-88
2023/09/20 03:10:41;;;;;;;5.55;2.05;;;;;;;17.57;72.89;99754.81;6156175;23;20016;-89
2023/09/20 03:13:19;;;;;;;4.35;1.65;;;;;;;17.57;72.94;99758.31;6155720;23;20020;-88
2023/09/20 03:15:54;;;;;;;3.30;1.50;;;;;;;17.54;73.07;99742.59;6158207;23;20083;-89
2023/09/20 03:18:23;;;;;;;2.13;1.38;;;;;;;17.54;73.29;99753.31;6205632;23;20059;-88
2023/09/20 03:20:56;;;;;;;2.10;1.00;;;;;;;17.50;73.37;99738.63;6181079;23;20444;-88
2023/09/20 03:23:23;;;;;;;1.88;1.27;;;;;;;17.52;73.32;99746.47;6179958;23;20919;-88
2023/09/20 03:25:51;;;;;;;4.30;1.50;;;;;;;17.51;73.27;99732.22;6154729;23;20028;-89
2023/09/20 03:28:24;;;;;;;3.45;1.50;;;;;;;17.48;73.19;99748.69;6155723;23;20043;-87
2023/09/20 03:30:55;;;;;;;2.50;1.77;;;;;;;17.51;73.33;99748.31;6180079;23;20027;-89
2023/09/20 03:33:24;;;;;;;1.83;1.65;;;;;;;17.47;73.37;99738.13;6155234;23;20120;-88
2023/09/20 03:35:52;;;;;;;5.85;1.67;;;;;;;17.46;73.61;99731.09;6179849;23;20113;-88
2023/09/20 03:38:19;;;;;;;4.10;1.55;;;;;;;17.46;73.55;99736.47;6179989;23;20027;-88
2023/09/20 03:40:46;;;;;;;2.58;1.33;;;;;;;17.46;73.39;99729.25;6179585;23;20027;-89
2023/09/20 03:43:13;;;;;;;1.75;1.40;;;;;;;17.48;73.52;99726.41;6179364;23;20020;-89
2023/09/20 03:45:47;;;;;;;2.90;1.50;;;;;;;17.45;73.49;99726.75;6206441;23;20025;-88
2023/09/20 03:48:15;;;;;;;2.40;1.63;;;;;;;17.44;73.26;99725.91;6179542;23;20100;-89
2023/09/20 03:50:43;;;;;;;2.88;1.50;;;;;;;17.39;73.24;99719.44;6155498;23;20036;-88
2023/09/20 03:53:12;;;;;;;2.28;1.58;;;;;;;17.36;73.21;99726.81;6204979;23;20632;-88
2023/09/20 03:55:48;;;;;;;2.22;1.60;;;;;;;17.39;72.86;99722.94;6180683;23;20044;-87
2023/09/20 03:58:17;;;;;;;5.30;1.50;;;;;;;17.31;73.08;99718.47;6152383;23;20028;-88
2023/09/20 04:00:45;;;;;;;3.45;1.50;;;;;;;17.33;73.00;99712.94;6155233;23;20012;-88
2023/09/20 04:03:13;;;;;;;3.38;1.50;;;;;;;17.34;73.08;99719.97;6179688;23;20024;-87
2023/09/20 04:05:41;;;;;;;3.28;1.63;;;;;;;17.29;73.01;99717.81;6179656;23;20020;-88
2023/09/20 04:08:16;;;;;;;2.55;1.70;;;;;;;17.27;72.63;99713.66;6156039;23;20064;-89
2023/09/20 04:10:45;;;;;;;3.53;1.80;;;;;;;17.26;72.79;99710.16;6156896;23;20095;-88
2023/09/20 04:13:13;;;;;;;3.78;1.48;;;;;;;17.24;72.79;99709.47;6131109;23;20039;-89
2023/09/20 04:15:42;;;;;;;2.45;1.73;;;;;;;17.26;72.54;99709.31;6154913;23;20024;-88
2023/09/20 04:18:13;;;;;;;2.78;1.60;;;;;;;17.22;72.48;99708.00;6155378;23;20024;-89
2023/09/20 04:20:42;;;;;;;1.90;1.38;;;;;;;17.23;72.54;99710.50;6179758;23;20400;-89
2023/09/20 04:23:10;;;;;;;2.70;1.58;;;;;;;17.20;72.51;99705.53;6154525;23;20029;-88
2023/09/20 04:25:38;;;;;;;1.50;1.30;;;;;;;17.17;72.97;99699.66;6155353;23;20023;-89
2023/09/20 04:28:05;;;;;;;2.47;1.63;;;;;;;17.15;72.85;99702.53;6204193;23;20020;-87
2023/09/20 04:30:33;;;;;;;2.30;1.90;;;;;;;17.13;72.52;99701.88;6179193;23;20020;-88
2023/09/20 04:33:00;;;;;;;3.67;1.23;;;;;;;17.13;72.61;99705.41;6155450;23;20016;-88
2023/09/20 04:35:33;;;;;;;3.53;1.95;;;;;;;17.11;72.70;99710.09;6179240;23;20028;-87
2023/09/20 04:38:03;;;;;;;2.58;1.40;;;;;;;17.10;72.62;99702.25;6177675;23;20016;-87
2023/09/20 04:40:30;;;;;;;2.88;2.03;;;;;;;17.10;72.63;99703.09;6153720;23;20515;-86
2023/09/20 04:42:57;;;;;;;5.07;1.95;;;;;;;17.08;72.66;99705.09;6178036;23;20441;-87
2023/09/20 04:45:24;;;;;;;3.05;1.80;;;;;;;17.08;72.66;99705.09;6179664;23;20078;-87
2023/09/20 04:47:52;;;;;;;3.13;1.58;;;;;;;17.06;72.60;99699.09;6204352;23;20393;-87
2023/09/20 04:50:19;;;;;;;4.85;1.60;;;;;;;17.08;72.43;99701.59;6155050;23;20099;-87
2023/09/20 04:52:50;;;;;;;2.92;1.75;;;;;;;17.05;72.46;99696.59;6130625;23;20020;-86
2023/09/20 04:55:18;;;;;;;4.30;1.83;;;;;;;17.05;72.36;99691.22;6153285;23;20059;-87
2023/09/20 04:57:47;;;;;;;3.20;1.90;;;;;;;17.01;72.65;99700.66;6154014;23;20024;-87
2023/09/20 05:00:16;;;;;;;2.92;1.65;;;;;;;16.99;72.69;99695.44;6155186;23;20066;-86
2023/09/20 05:02:44;;;;;;;2.55;1.67;;;;;;;16.95;72.87;99688.81;6204522;23;20048;-86
2023/09/20 05:05:12;;;;;;;2.80;1.48;;;;;;;16.95;72.72;99698.69;6202824;23;20460;-87
2023/09/20 05:07:40;;;;;;;6.80;1.63;;;;;;;16.93;72.95;99697.00;6154715;23;20611;-87
2023/09/20 05:10:08;;;;;;;2.35;1.77;;;;;;;16.92;73.20;99698.03;6155082;23;20020;-87
2023/09/20 05:12:35;;;;;;;2.85;1.60;;;;;;;16.95;73.33;99701.38;6179937;23;20023;-87
2023/09/20 05:15:03;;;;;;;2.88;1.63;;;;;;;16.93;73.32;99707.75;6178077;23;20070;-87
2023/09/20 05:17:30;;;;;;;2.17;1.85;;;;;;;16.93;73.28;99706.91;6179287;23;20028;-87
2023/09/20 05:19:58;;;;;;;4.88;2.53;;;;;;;16.94;73.24;99708.56;6154157;23;20017;-87
2023/09/20 05:22:25;;;;;;;5.07;2.13;;;;;;;16.94;73.15;99716.63;6179312;23;20031;-87
2023/09/20 05:24:52;;;;;;;5.65;2.53;;;;;;;16.93;73.33;99715.78;6153790;23;20052;-87
2023/09/20 05:27:18;;;;;;;4.50;2.30;;;;;;;16.92;73.53;99714.13;6153825;23;20047;-88
2023/09/20 05:29:45;;;;;;;3.78;2.00;;;;;;;16.91;73.41;99707.09;6179738;23;20082;-87
2023/09/20 05:32:12;;;;;;;4.20;2.30;;;;;;;16.94;73.42;99708.56;6154121;23;20025;-88
2023/09/20 05:34:39;;;;;;;6.22;2.17;;;;;;;16.91;73.60;99701.72;6178378;23;20051;-87
2023/09/20 05:37:06;;;;;;;5.63;2.40;;;;;;;16.93;73.28;99701.56;6178876;23;20102;-87
2023/09/20 05:39:34;;;;;;;3.65;2.50;;;;;;;16.92;73.04;99694.53;6154568;23;20028;-87
2023/09/20 05:42:02;;;;;;;4.15;2.10;;;;;;;16.89;73.23;99695.72;6178177;23;20031;-87
2023/09/20 05:44:30;;;;;;;3.35;2.08;;;;;;;16.91;73.47;99706.25;6178970;23;20344;-87
2023/09/20 05:46:57;;;;;;;3.25;2.13;;;;;;;16.90;73.47;99713.47;6178680;23;20020;-87
2023/09/20 05:49:24;;;;;;;6.05;1.80;;;;;;;16.90;73.39;99708.09;6154240;23;20028;-87
2023/09/20 05:51:52;;;;;;;4.88;1.73;;;;;;;16.95;73.23;99712.09;6202493;23;20392;-87
2023/09/20 05:54:19;;;;;;;3.38;1.88;;;;;;;16.95;73.57;99710.25;6153024;23;20040;-87
2023/09/20 05:56:46;;;;;;;3.58;1.73;;;;;;;16.97;73.50;99716.28;6153814;23;20095;-87
2023/09/20 05:59:14;;;;;;;6.55;2.22;;;;;;;17.00;73.75;99717.78;6178064;23;20020;-87
2023/09/20 06:01:40;;;;;;;4.40;2.13;;;;;;;17.04;74.02;99713.69;6178686;23;20035;-87
2023/09/20 06:04:09;;;;;;;8.13;2.20;;;;;;;17.05;74.15;99715.38;6178305;23;20090;-87
2023/09/20 06:06:39;;;;;;;3.20;2.22;;;;;;;17.06;73.92;99719.72;6155150;23;20016;-88
2023/09/20 06:09:06;;;;;;;2.78;2.10;;;;;;;17.04;73.61;99721.75;6178327;23;20020;-87
2023/09/20 06:11:33;;;;;;;2.15;1.85;;;;;;;17.01;73.92;99720.25;6154095;23;20075;-88
2023/09/20 06:14:00;;;;;;;4.47;2.45;;;;;;;17.02;73.68;99719.25;6177775;23;20024;-87
2023/09/20 06:16:27;;;;;;;3.33;2.40;;;;;;;17.03;73.50;99722.78;6153170;23;20012;-88
2023/09/20 06:18:54;;;;;;;3.35;2.25;;;;;;;17.03;73.67;99722.78;6178601;23;20448;-87
2023/09/20 06:21:33;;;;;;;7.03;2.60;;;;;;;17.02;73.49;99715.72;6156482;23;20428;-87
2023/09/20 06:24:01;;;;;;;6.88;2.63;;;;;;;17.07;73.29;99726.75;6153680;23;20013;-88
2023/09/20 06:26:28;;;;;;;5.22;2.17;;;;;;;17.04;73.37;99717.19;6177958;23;20028;-87
2023/09/20 06:28:55;;;;;;;4.88;2.40;;;;;;;17.10;73.38;99716.50;6154096;23;20461;-87
2023/09/20 06:31:22;;;;;;;5.35;2.45;;;;;;;17.18;73.13;99722.81;6178610;23;20039;-87
2023/09/20 06:33:49;;;;;;;3.25;2.20;;;;;;;17.20;73.20;99720.75;6178445;23;20380;-86
2023/09/20 06:36:17;;;;;;;4.95;2.42;;;;;;;17.23;72.83;99720.41;6177932;23;20020;-87
2023/09/20 06:38:46;;;;;;;2.25;1.95;;;;;;;17.23;72.94;99718.56;6153487;23;20020;-87
2023/09/20 06:41:14;;;;;;;5.05;2.83;;;;;;;17.28;73.02;99721.53;6153516;23;20028;-87
2023/09/20 06:43:41;;;;;;;4.57;3.10;;;;;;;17.30;72.85;99714.16;6177860;23;20449;-88
2023/09/20 06:46:09;;;;;;;2.95;2.20;;;;;;;17.36;72.88;99712.56;6153881;23;20393;-87
2023/09/20 06:48:37;;;;;;;7.68;2.40;;;;;;;17.39;73.27;99712.19;6203073;23;20029;-87
2023/09/20 06:51:08;;;;;;;4.03;2.30;;;;;;;17.43;72.87;99707.28;6152753;23;20380;-87
2023/09/20 06:53:35;;;;;;;4.93;2.70;;;;;;;17.50;73.20;99705.53;6202989;23;20444;-87
2023/09/20 06:56:02;;;;;;;2.40;2.13;;;;;;;17.51;73.50;99704.53;6153007;23;20126;-87
2023/09/20 06:58:29;;;;;;;3.72;2.35;;;;;;;17.52;73.30;99701.66;6178082;23;20025;-87
2023/09/20 07:00:56;;;;;;;4.45;2.38;;;;;;;17.59;73.25;99693.72;6153280;23;20020;-87
2023/09/20 07:03:23;;;;;;;4.38;2.80;;;;;;;17.63;73.59;99691.47;6202650;23;20048;-86
2023/09/20 07:05:51;;;;;;;7.88;2.83;;;;;;;17.67;73.99;99687.41;6178325;23;20024;-87
2023/09/20 07:08:19;;;;;;;3.85;2.17;;;;;;;17.71;74.12;99691.41;6152511;23;20048;-87
2023/09/20 07:10:46;;;;;;;2.65;2.08;;;;;;;17.73;73.82;99687.53;6178200;23;20016;-87
2023/09/20 07:13:16;;;;;;;3.00;1.92;;;;;;;17.77;73.71;99683.44;6201689;23;20036;-87
2023/09/20 07:15:43;;;;;;;3.40;2.42;;;;;;;17.80;73.54;99679.56;6177579;23;20024;-86
2023/09/20 07:18:12;;;;;;;3.30;2.30;;;;;;;17.83;73.59;99681.03;6177049;23;20024;-86
2023/09/20 07:20:41;;;;;;;6.13;2.20;;;;;;;17.86;73.69;99678.84;6177708;23;20024;-86
2023/09/20 07:23:12;;;;;;;6.20;2.38;;;;;;;17.90;73.90;99677.44;6177196;23;20024;-87
2023/09/20 07:25:40;;;;;;;8.98;2.15;;;;;;;17.93;73.87;99677.03;6154582;23;20036;-87
2023/09/20 07:28:07;;;;;;;3.97;2.33;;;;;;;17.97;73.74;99674.84;6201670;23;20025;-87
2023/09/20 07:30:40;;;;;;;7.78;2.25;;;;;;;17.98;73.24;99681.84;6177748;23;20021;-87
2023/09/20 07:33:11;;;;;;;4.30;2.35;;;;;;;18.00;73.23;99682.50;6178810;23;20020;-87
2023/09/20 07:35:49;;;;;;;4.38;2.40;;;;;;;18.04;73.74;99677.59;6155112;23;20020;-87
2023/09/20 07:40:50;;;;;;;4.85;2.70;;;;;;;18.05;73.74;99679.28;6153931;23;20024;-88
2023/09/20 07:43:18;;;;;;;6.75;2.75;;;;;;;18.05;73.57;99673.91;6153062;23;20047;-87
2023/09/20 07:45:54;;;;;;;4.70;2.35;;;;;;;18.06;73.65;99672.88;6202435;23;20903;-88
2023/09/20 07:48:22;;;;;;;3.38;2.17;;;;;;;18.07;73.71;99670.00;6153363;23;20396;-87
2023/09/20 07:50:49;;;;;;;3.72;2.25;;;;;;;18.10;73.66;99672.31;6202810;23;20024;-87
2023/09/20 07:53:20;;;;;;;8.32;2.95;;;;;;;18.10;73.86;99661.56;6176947;23;20028;-87
2023/09/20 07:56:03;;;;;;;7.63;2.88;;;;;;;18.10;74.00;99666.94;6201521;23;20032;-87
2023/09/20 07:58:40;;;;;;;4.28;2.38;;;;;;;18.18;74.14;99663.28;6203030;23;20349;-87
2023/09/20 08:01:29;;;;;;;3.00;1.92;;;;;;;18.22;74.07;99669.97;6154611;23;20434;-88
2023/09/20 08:03:59;;;;;;;6.68;2.08;;;;;;;18.26;74.10;99652.41;6176504;23;20021;-87
2023/09/20 08:06:28;;;;;;;4.72;2.30;;;;;;;18.28;74.33;99657.63;6202919;23;20341;-87
2023/09/20 08:08:56;;;;;;;3.97;2.40;;;;;;;18.30;74.05;99656.41;6178258;23;20079;-87
2023/09/20 08:11:23;;;;;;;5.88;2.42;;;;;;;18.34;74.27;99654.16;6152542;23;20016;-87
2023/09/20 08:13:51;;;;;;;3.13;2.17;;;;;;;18.39;74.01;99654.41;6152631;23;20040;-88
2023/09/20 08:16:18;;;;;;;6.00;2.75;;;;;;;18.41;74.17;99642.44;6177556;23;20031;-88
2023/09/20 08:19:04;;;;;;;4.05;3.03;;;;;;;18.44;74.12;99647.47;6154346;23;20523;-87
2023/09/20 08:21:33;;;;;;;4.45;2.20;;;;;;;18.44;73.79;99639.41;6182953;23;20030;-87
2023/09/20 09:00:35;;;;;;;6.60;1.77;;;;;;;18.64;73.15;99636.88;6158147;23;20387;-86
2023/09/20 09:03:04;;;;;;;2.80;1.60;;;;;;;18.67;73.26;99630.28;6203469;23;20028;-86
2023/09/20 09:05:32;;;;;;;2.72;1.52;;;;;;;18.68;73.37;99628.44;6154482;23;20390;-86
2023/09/20 09:08:01;;;;;;;5.53;2.00;;;;;;;18.73;73.36;99644.84;6203803;23;20025;-87
2023/09/20 09:10:29;;;;;;;3.45;1.65;;;;;;;18.74;73.22;99641.94;6179959;23;20078;-87
2023/09/20 09:12:56;;;;;;;4.05;1.90;;;;;;;18.77;73.14;99643.44;6178688;23;20019;-87
2023/09/20 09:15:23;;;;;;;4.07;2.13;;;;;;;18.80;72.99;99641.22;6179189;23;20099;-86
2023/09/20 09:17:51;;;;;;;5.97;2.08;;;;;;;18.83;72.72;99637.31;6179732;23;20372;-86
2023/09/20 09:20:21;;;;;;;3.65;1.65;;;;;;;18.85;72.85;99633.41;6179879;23;20025;-86
2023/09/20 09:22:49;;;;;;;3.28;2.13;;;;;;;18.88;73.30;99632.16;6203788;23;20179;-86
2023/09/20 09:25:18;;;;;;;4.55;2.10;;;;;;;18.89;73.24;99631.13;6204004;23;20024;-87
2023/09/20 09:27:45;;;;;;;2.65;2.08;;;;;;;18.91;73.52;99637.16;6154114;23;20021;-86
2023/09/20 09:30:15;;;;;;;3.05;2.00;;;;;;;18.92;73.14;99636.13;6203414;23;20033;-86
2023/09/20 09:32:43;;;;;;;3.45;2.05;;;;;;;18.92;73.61;99635.28;6204584;23;20029;-87
2023/09/20 09:35:12;;;;;;;3.05;2.00;;;;;;;18.95;73.04;99624.97;6154681;23;20108;-86
2023/09/20 09:37:43;;;;;;;4.13;2.20;;;;;;;18.97;72.89;99627.47;6155376;23;20012;-85
2023/09/20 09:40:12;;;;;;;2.97;1.80;;;;;;;18.96;73.10;99626.63;6204499;23;20043;-85
2023/09/20 09:42:42;;;;;;;3.53;1.88;;;;;;;18.96;73.03;99621.25;6179610;23;20021;-86
2023/09/20 09:45:09;;;;;;;2.42;1.80;;;;;;;19.02;72.77;99623.16;6178944;23;20646;-87
2023/09/20 09:47:41;;;;;;;3.85;2.10;;;;;;;19.05;72.55;99628.13;6153454;23;20465;-87
2023/09/20 09:50:09;;;;;;;2.72;1.40;;;;;;;19.11;72.73;99625.69;6178554;23;20020;-87
2023/09/20 09:52:38;;;;;;;2.80;1.90;;;;;;;19.17;71.84;99623.06;6153515;23;20028;-86
2023/09/20 09:55:06;;;;;;;3.42;1.90;;;;;;;19.22;72.21;99619.78;6179114;23;20032;-87
2023/09/20 09:57:33;;;;;;;4.95;2.70;;;;;;;19.25;71.77;99608.63;6203740;23;20103;-87
2023/09/20 10:00:01;;;;;;;2.92;2.05;;;;;;;19.28;72.14;99616.28;6203668;23;20031;-86
2023/09/20 10:02:42;;;;;;;2.08;1.70;;;;;;;19.29;72.03;99607.19;6204038;23;20020;-86
2023/09/20 10:05:12;;;;;;;6.25;1.73;;;;;;;19.34;72.17;99607.44;6178159;23;20033;-87
2023/09/20 10:07:41;;;;;;;2.78;2.05;;;;;;;19.39;72.59;99599.59;6203128;23;20348;-87
2023/09/20 10:10:16;;;;;;;3.08;1.77;;;;;;;19.41;72.31;99592.16;6177558;23;20345;-86
2023/09/20 10:12:46;;;;;;;3.80;1.75;;;;;;;19.42;72.05;99590.28;6154466;23;20353;-87
2023/09/20 10:15:15;;;;;;;4.68;2.00;;;;;;;19.44;71.73;99591.75;6203743;23;20075;-87
2023/09/20 10:17:46;;;;;;;1.80;1.50;;;;;;;19.46;71.84;99587.00;6152509;23;20025;-86
2023/09/20 10:20:16;;;;;;;2.17;1.60;;;;;;;19.51;71.75;99587.25;6153434;23;20028;-87
2023/09/20 10:22:46;;;;;;;3.40;1.73;;;;;;;19.55;71.23;99581.44;6179559;23;20441;-86
2023/09/20 10:25:29;;;;;;;2.08;1.35;;;;;;;19.52;70.23;99575.41;6179499;23;20092;-87
2023/09/20 10:27:56;;;;;;;2.13;1.63;;;;;;;19.60;70.39;99569.03;6177553;23;20024;-86
2023/09/20 10:30:23;;;;;;;2.90;1.63;;;;;;;19.63;70.37;99576.69;6203648;23;20017;-87
2023/09/20 10:32:57;;;;;;;5.35;1.95;;;;;;;19.66;69.78;99572.78;6178898;23;20333;-87
2023/09/20 10:35:31;;;;;;;3.05;1.80;;;;;;;19.68;69.69;99565.38;6203689;23;20449;-86
2023/09/20 10:38:04;;;;;;;3.22;1.70;;;;;;;19.68;69.51;99558.09;6203074;23;20016;-87
2023/09/20 10:40:46;;;;;;;5.97;2.58;;;;;;;19.67;68.67;99556.47;6203286;23;20095;-86
2023/09/20 10:43:18;;;;;;;5.05;2.00;;;;;;;19.75;68.68;99550.06;6201626;23;20025;-88
2023/09/20 10:45:52;;;;;;;2.75;1.80;;;;;;;19.77;68.15;99544.44;6202822;23;20040;-86
2023/09/20 10:48:23;;;;;;;6.28;1.90;;;;;;;19.79;67.66;99542.38;6177968;23;20015;-86
2023/09/20 10:50:57;;;;;;;3.70;1.80;;;;;;;19.82;67.54;99541.97;6153814;23;20041;-86
2023/09/20 10:53:50;;;;;;;3.28;1.73;;;;;;;19.77;66.89;99539.91;6204192;23;20074;-86
2023/09/20 10:56:52;;;;;;;5.43;2.00;;;;;;;19.80;66.94;99539.50;6204941;23;20790;-87
2023/09/20 10:59:25;;;;;;;1.70;1.40;;;;;;;19.89;67.19;99526.66;6202210;23;20044;-87
2023/09/20 11:01:53;;;;;;;3.17;1.27;;;;;;;19.92;66.92;99528.94;6202890;23;20091;-86
2023/09/20 11:04:20;;;;;;;3.55;1.52;;;;;;;19.94;66.93;99524.19;6153250;23;20499;-87
2023/09/20 11:06:48;;;;;;;3.90;1.50;;;;;;;19.99;66.15;99529.78;6178667;23;20019;-87
2023/09/20 11:09:15;;;;;;;2.67;1.60;;;;;;;19.98;66.11;99528.16;6177147;23;20079;-87
2023/09/20 11:11:43;;;;;;;1.90;1.40;;;;;;;20.01;66.40;99521.53;6178061;23;20102;-87
2023/09/20 11:14:10;;;;;;;2.63;1.52;;;;;;;20.03;65.81;99519.44;6202968;23;20044;-86
2023/09/20 11:16:41;;;;;;;4.45;1.70;;;;;;;20.04;65.92;99513.00;6178333;23;20025;-87
2023/09/20 11:19:12;;;;;;;1.92;1.30;;;;;;;20.08;65.12;99522.38;6154057;23;20074;-87
2023/09/20 11:21:41;;;;;;;1.63;1.25;;;;;;;20.14;65.49;99516.13;6154199;23;20031;-87
2023/09/20 11:24:10;;;;;;;2.22;0.98;;;;;;;20.13;64.89;99503.72;6177167;23;20016;-87
2023/09/20 11:26:40;;;;;;;3.05;1.55;;;;;;;20.15;64.80;99504.34;6153695;23;20025;-88
2023/09/20 11:29:09;;;;;;;3.95;1.67;;;;;;;20.17;63.41;99504.94;6178554;23;20696;-86
2023/09/20 11:31:37;;;;;;;2.10;1.58;;;;;;;20.22;63.34;99498.94;6203282;23;20024;-86
2023/09/20 11:34:05;;;;;;;2.00;1.50;;;;;;;20.23;63.38;99487.13;6201921;23;20032;-87
2023/09/20 11:36:39;;;;;;;5.30;1.63;;;;;;;20.25;63.35;99483.19;6178662;23;20091;-87
2023/09/20 11:39:06;;;;;;;2.17;1.38;;;;;;;20.28;63.06;99474.69;6152168;23;20029;-87
2023/09/20 11:41:33;;;;;;;1.95;1.30;;;;;;;20.33;63.38;99471.38;6204657;23;20043;-87
2023/09/20 11:44:03;;;;;;;1.73;0.93;;;;;;;20.33;63.55;99464.09;6177133;23;20020;-87
2023/09/20 11:46:33;;;;;;;4.97;1.35;;;;;;;20.38;63.07;99461.59;6153566;23;20380;-87
2023/09/20 11:49:02;;;;;;;2.70;1.35;;;;;;;20.42;63.04;99467.41;6153417;23;20020;-87
2023/09/20 11:51:32;;;;;;;3.05;1.10;;;;;;;20.45;63.07;99472.38;6202331;23;20024;-87
2023/09/20 11:54:00;;;;;;;1.70;1.27;;;;;;;20.46;62.90;99471.34;6180278;23;20750;-87
2023/09/20 11:56:30;;;;;;;2.30;1.27;;;;;;;20.50;62.71;99477.16;6205348;23;20027;-87
2023/09/20 11:58:59;;;;;;;1.40;1.25;;;;;;;20.51;62.05;99468.03;6180990;23;20097;-88
2023/09/20 12:01:30;;;;;;;2.08;1.42;;;;;;;20.53;61.74;99460.53;6203938;23;20024;-87
2023/09/20 12:03:57;;;;;;;5.35;1.60;;;;;;;20.53;61.26;99458.69;6155243;23;20024;-87
2023/09/20 12:06:27;;;;;;;3.00;1.40;;;;;;;20.56;61.31;99463.69;6155346;23;20031;-88
2023/09/20 12:08:54;;;;;;;3.72;1.70;;;;;;;20.57;60.70;99457.25;6179662;23;20040;-87
2023/09/20 12:11:22;;;;;;;2.92;1.40;;;;;;;20.63;61.22;99446.66;6179906;23;20317;-88
2023/09/20 12:13:49;;;;;;;3.03;1.45;;;;;;;20.66;61.82;99443.53;6180903;23;20019;-87
2023/09/20 12:16:23;;;;;;;4.13;1.50;;;;;;;20.68;61.49;99442.28;6206494;23;20024;-88
2023/09/20 12:18:58;;;;;;;2.60;1.60;;;;;;;20.72;61.64;99440.00;6206592;23;20348;-87
2023/09/20 12:21:25;;;;;;;2.00;1.25;;;;;;;20.74;61.50;99444.16;6205391;23;20021;-86
2023/09/20 12:23:53;;;;;;;1.77;1.50;;;;;;;20.74;60.95;99436.06;6205947;23;20008;-87